Time;durP1;ratioP1;P1;durP2;ratioP2;P2;SDS_P1;SDS_P2;PMS_P1;PMS_P2;Temp;Humidity;BMP_temperature;BMP_pressure;BME280_temperature;BME280_humidity;BME280_pressure;Samples;Min_cycle;Max_cycle;Signal;HPM_P1;HPM_P2
2020/12/24 00:00:11;;;;;;;1.80;1.30;;;9.10;99.90;;;;;;4997007;28;20594;-87
2020/12/24 00:02:36;;;;;;;2.43;1.40;;;9.10;99.90;;;;;;4996890;28;20525;-88
2020/12/24 00:05:03;;;;;;;1.70;1.40;;;9.10;99.90;;;;;;5014374;28;20514;-87
2020/12/24 00:07:28;;;;;;;11.53;5.43;;;9.10;99.90;;;;;;5014395;28;20034;-87
2020/12/24 00:09:54;;;;;;;8.27;4.13;;;9.00;99.90;;;;;;5014456;28;20037;-87
2020/12/24 00:12:19;;;;;;;9.27;3.87;;;9.00;99.90;;;;;;4996755;28;20018;-87
2020/12/24 00:14:45;;;;;;;4.47;2.47;;;9.00;99.90;;;;;;5014631;28;20026;-86
2020/12/24 00:17:10;;;;;;;2.33;1.40;;;9.00;99.90;;;;;;5012867;28;20394;-87
2020/12/24 00:19:36;;;;;;;2.93;1.43;;;9.00;99.90;;;;;;5002269;28;20463;-87
2020/12/24 00:22:02;;;;;;;3.27;1.50;;;9.00;99.90;;;;;;5014235;28;20486;-87
2020/12/24 00:24:27;;;;;;;3.13;1.60;;;9.00;99.90;;;;;;5014094;28;20037;-88
2020/12/24 00:26:53;;;;;;;2.90;1.60;;;9.00;99.90;;;;;;5003405;28;20080;-88
2020/12/24 00:29:18;;;;;;;2.93;1.60;;;8.90;99.90;;;;;;4993954;28;20018;-88
2020/12/24 00:31:44;;;;;;;2.27;1.57;;;8.90;99.90;;;;;;5014155;28;20030;-88
2020/12/24 00:34:09;;;;;;;2.27;1.70;;;8.90;99.90;;;;;;4996305;28;20025;-88
2020/12/24 00:36:35;;;;;;;3.67;1.70;;;8.90;99.90;;;;;;5014145;28;20100;-88
2020/12/24 00:39:02;;;;;;;2.80;1.70;;;8.90;99.90;;;;;;5013928;28;20033;-89
2020/12/24 00:41:28;;;;;;;2.30;1.50;;;8.80;99.90;;;;;;5013914;28;20022;-89
2020/12/24 00:43:53;;;;;;;3.43;1.70;;;8.90;99.90;;;;;;4996108;28;20420;-88
2020/12/24 00:46:19;;;;;;;2.17;1.60;;;8.80;99.90;;;;;;5013858;28;20096;-88
2020/12/24 00:48:45;;;;;;;2.07;1.53;;;8.90;99.90;;;;;;5013985;28;20029;-88
2020/12/24 00:51:11;;;;;;;2.73;1.83;;;8.90;99.90;;;;;;4996147;28;20022;-88
2020/12/24 00:53:37;;;;;;;2.00;1.60;;;8.80;99.90;;;;;;5013681;28;20109;-88
2020/12/24 00:56:02;;;;;;;3.17;1.90;;;8.80;99.90;;;;;;5013782;28;20458;-88
2020/12/24 00:58:28;;;;;;;4.73;1.90;;;8.80;99.90;;;;;;5014149;28;20033;-88
2020/12/24 01:00:54;;;;;;;2.43;1.70;;;8.80;99.90;;;;;;5013822;28;20026;-88
2020/12/24 01:03:19;;;;;;;3.37;1.80;;;8.70;99.90;;;;;;5013395;28;20037;-87
2020/12/24 01:05:45;;;;;;;2.97;2.10;;;8.70;99.90;;;;;;5013541;28;20124;-88
2020/12/24 01:08:10;;;;;;;3.93;1.90;;;8.70;99.90;;;;;;5013413;28;20508;-89
2020/12/24 01:10:36;;;;;;;2.40;1.93;;;8.70;99.90;;;;;;5013443;28;20026;-88
2020/12/24 01:13:02;;;;;;;3.30;2.10;;;8.70;99.90;;;;;;5013305;28;20029;-88
2020/12/24 01:15:27;;;;;;;5.77;2.20;;;8.70;99.90;;;;;;5013354;28;20029;-88
2020/12/24 01:17:53;;;;;;;2.87;2.00;;;8.70;99.90;;;;;;5013439;28;20494;-88
2020/12/24 01:20:19;;;;;;;2.87;2.30;;;8.70;99.90;;;;;;5013273;28;20058;-88
2020/12/24 01:22:44;;;;;;;3.37;2.30;;;8.70;99.90;;;;;;5013041;28;20026;-88
2020/12/24 01:25:10;;;;;;;3.97;2.67;;;8.70;99.90;;;;;;4995799;28;20022;-88
2020/12/24 01:27:36;;;;;;;4.47;3.27;;;8.70;99.90;;;;;;4981718;28;20022;-87
2020/12/24 01:30:01;;;;;;;4.07;3.43;;;8.70;99.90;;;;;;5013132;28;20028;-88
2020/12/24 01:32:27;;;;;;;5.13;3.17;;;8.70;99.90;;;;;;5012564;28;20487;-88
2020/12/24 01:34:52;;;;;;;4.63;2.57;;;8.70;99.90;;;;;;5005910;28;20022;-87
2020/12/24 01:37:18;;;;;;;3.37;2.77;;;8.70;99.90;;;;;;5006549;28;20026;-87
2020/12/24 01:39:43;;;;;;;4.27;3.17;;;8.70;99.90;;;;;;5007835;28;20026;-87
2020/12/24 01:42:09;;;;;;;4.93;3.10;;;8.70;99.90;;;;;;5004253;28;20037;-87
2020/12/24 01:44:35;;;;;;;4.70;2.47;;;8.70;99.90;;;;;;4995140;28;20064;-87
2020/12/24 01:47:00;;;;;;;3.67;2.30;;;8.80;99.90;;;;;;5013081;28;20093;-87
2020/12/24 01:49:26;;;;;;;4.37;2.17;;;8.80;99.90;;;;;;5013204;28;20336;-87
2020/12/24 01:51:56;;;;;;;2.90;2.20;;;8.90;99.90;;;;;;5012618;28;20080;-87
2020/12/24 01:54:26;;;;;;;2.60;2.07;;;8.80;99.90;;;;;;5012940;28;20018;-87
2020/12/24 01:56:53;;;;;;;3.90;2.30;;;8.80;99.90;;;;;;5012934;28;20465;-87
2020/12/24 01:59:18;;;;;;;4.87;2.20;;;8.80;99.90;;;;;;5012723;28;20068;-87
2020/12/24 02:01:49;;;;;;;4.60;2.30;;;8.80;99.90;;;;;;5012830;28;20057;-88
2020/12/24 02:04:15;;;;;;;3.00;2.10;;;8.70;99.90;;;;;;4995055;28;20045;-88
2020/12/24 02:06:42;;;;;;;4.30;2.20;;;8.70;99.90;;;;;;5012674;28;20489;-87
2020/12/24 02:09:09;;;;;;;3.03;1.87;;;8.70;99.90;;;;;;5012900;28;20025;-88
2020/12/24 02:11:35;;;;;;;2.50;1.80;;;8.60;99.90;;;;;;5008807;28;20038;-88
2020/12/24 02:14:01;;;;;;;4.67;1.83;;;8.60;99.90;;;;;;4994911;28;20021;-88
2020/12/24 02:16:26;;;;;;;2.63;1.87;;;8.60;99.90;;;;;;4994970;28;20045;-88
2020/12/24 02:18:52;;;;;;;3.27;1.80;;;8.60;99.90;;;;;;5012578;28;20123;-88
2020/12/24 02:21:18;;;;;;;3.10;2.13;;;8.60;99.90;;;;;;5012481;28;20707;-88
2020/12/24 02:23:44;;;;;;;2.33;1.73;;;8.50;99.90;;;;;;5012634;28;20024;-88
2020/12/24 02:26:09;;;;;;;2.87;2.00;;;8.50;99.90;;;;;;4994869;28;20048;-87
2020/12/24 02:28:35;;;;;;;2.37;1.60;;;8.50;99.90;;;;;;5001454;28;20022;-87
2020/12/24 02:31:01;;;;;;;3.27;1.90;;;8.50;99.90;;;;;;5009746;28;20045;-88
2020/12/24 02:33:27;;;;;;;3.53;1.90;;;8.50;99.90;;;;;;4994667;28;20843;-87
2020/12/24 02:35:52;;;;;;;3.40;1.70;;;8.50;99.90;;;;;;5012265;28;20097;-87
2020/12/24 02:38:18;;;;;;;5.07;2.23;;;8.50;99.90;;;;;;5012564;28;20097;-87
2020/12/24 02:40:44;;;;;;;2.30;1.70;;;8.50;99.90;;;;;;4994836;28;20080;-87
2020/12/24 02:43:09;;;;;;;3.63;1.90;;;8.40;99.90;;;;;;5012295;28;20120;-87
2020/12/24 02:45:35;;;;;;;3.30;1.80;;;8.40;99.90;;;;;;5014863;28;20420;-87
2020/12/24 02:48:00;;;;;;;2.97;1.80;;;8.40;99.90;;;;;;5016142;28;20145;-88
2020/12/24 02:50:26;;;;;;;3.57;1.80;;;8.40;99.90;;;;;;5014995;28;20026;-87
2020/12/24 02:52:53;;;;;;;2.30;1.70;;;8.50;99.90;;;;;;5013584;28;20099;-87
2020/12/24 02:55:18;;;;;;;3.40;2.00;;;8.50;99.90;;;;;;5013578;28;20072;-87
2020/12/24 02:57:44;;;;;;;2.63;1.83;;;8.50;99.90;;;;;;5013961;28;20034;-87
2020/12/24 03:00:11;;;;;;;3.20;1.70;;;8.50;99.90;;;;;;5014715;28;20025;-87
2020/12/24 03:02:38;;;;;;;3.20;1.70;;;8.50;99.90;;;;;;4997270;28;20889;-87
2020/12/24 03:05:05;;;;;;;2.93;1.70;;;8.50;99.90;;;;;;5015074;28;20038;-87
2020/12/24 03:07:30;;;;;;;2.17;1.60;;;8.50;99.90;;;;;;5015641;28;20116;-87
2020/12/24 03:09:56;;;;;;;1.70;1.40;;;8.50;99.90;;;;;;5015689;28;20107;-88
2020/12/24 03:12:23;;;;;;;2.93;1.70;;;8.50;99.90;;;;;;5015723;28;20018;-87
2020/12/24 03:14:50;;;;;;;2.20;1.60;;;8.50;99.90;;;;;;5015425;28;20084;-87
2020/12/24 03:17:16;;;;;;;2.60;1.70;;;8.50;99.90;;;;;;5015599;28;20037;-88
2020/12/24 03:19:42;;;;;;;2.50;1.60;;;8.50;99.90;;;;;;5015462;28;20100;-87
2020/12/24 03:22:07;;;;;;;1.83;1.70;;;8.60;99.90;;;;;;5015338;28;20038;-83
2020/12/24 03:24:33;;;;;;;3.20;1.70;;;8.50;99.90;;;;;;5029364;28;20097;-83
2020/12/24 03:26:58;;;;;;;2.80;1.73;;;8.50;99.90;;;;;;5015777;28;20141;-83
2020/12/24 03:29:24;;;;;;;2.30;1.60;;;8.50;99.90;;;;;;5015572;28;20030;-83
2020/12/24 03:31:49;;;;;;;2.70;1.37;;;8.50;99.90;;;;;;5015491;28;20133;-83
2020/12/24 03:34:15;;;;;;;1.83;1.40;;;8.50;99.90;;;;;;5013570;28;20029;-83
2020/12/24 03:36:40;;;;;;;2.20;1.30;;;8.50;99.90;;;;;;5003914;28;20062;-83
2020/12/24 03:39:06;;;;;;;3.30;1.20;;;8.70;99.90;;;;;;5029054;28;20050;-83
2020/12/24 03:41:31;;;;;;;1.57;1.00;;;8.70;99.90;;;;;;4995802;28;20054;-83
2020/12/24 03:43:57;;;;;;;1.13;0.80;;;8.80;99.90;;;;;;5007324;28;20346;-83
2020/12/24 03:46:22;;;;;;;1.10;0.80;;;8.80;99.90;;;;;;5015046;28;20515;-83
2020/12/24 03:48:48;;;;;;;1.63;1.00;;;8.80;99.90;;;;;;5013943;28;20029;-82
2020/12/24 03:51:13;;;;;;;1.63;0.80;;;8.80;99.90;;;;;;5015160;28;20065;-83
2020/12/24 03:53:39;;;;;;;0.70;0.70;;;8.80;99.90;;;;;;5015121;28;20053;-82
2020/12/24 03:56:04;;;;;;;1.60;0.63;;;8.70;99.90;;;;;;5013414;28;20425;-82
2020/12/24 03:58:32;;;;;;;0.67;0.67;;;8.70;99.90;;;;;;5029060;28;20104;-82
2020/12/24 04:00:58;;;;;;;0.80;0.60;;;8.70;99.90;;;;;;5015070;28;20052;-83
2020/12/24 04:03:23;;;;;;;0.70;0.70;;;8.70;99.90;;;;;;5014919;28;20053;-83
2020/12/24 04:05:49;;;;;;;2.63;0.70;;;8.70;99.90;;;;;;5006097;28;20049;-83
2020/12/24 04:08:14;;;;;;;1.43;0.70;;;8.70;99.90;;;;;;5009784;28;20033;-83
2020/12/24 04:10:40;;;;;;;1.30;0.60;;;8.70;99.90;;;;;;5008130;28;20053;-82
2020/12/24 04:13:05;;;;;;;0.50;0.50;;;8.60;99.90;;;;;;5007685;28;20087;-83
2020/12/24 04:15:31;;;;;;;0.90;0.60;;;8.70;99.90;;;;;;5014586;28;20033;-83
2020/12/24 04:17:56;;;;;;;1.27;0.60;;;8.60;99.90;;;;;;5014735;28;20032;-83
2020/12/24 04:20:22;;;;;;;1.20;0.70;;;8.60;99.90;;;;;;5014430;28;20026;-83
2020/12/24 04:22:48;;;;;;;0.60;0.60;;;8.50;99.90;;;;;;4996859;28;20533;-83
2020/12/24 04:25:13;;;;;;;1.97;0.70;;;8.50;99.90;;;;;;5014419;28;20053;-83
2020/12/24 04:27:39;;;;;;;0.77;0.60;;;8.50;99.90;;;;;;5014470;28;20044;-82
2020/12/24 04:30:06;;;;;;;1.13;0.80;;;8.40;99.90;;;;;;5014449;28;20048;-83
2020/12/24 04:32:33;;;;;;;1.37;0.60;;;8.30;99.90;;;;;;5010428;28;20014;-82
2020/12/24 04:34:58;;;;;;;0.70;0.70;;;8.30;99.90;;;;;;4995072;28;20145;-83
2020/12/24 04:37:24;;;;;;;1.47;0.80;;;8.30;99.90;;;;;;5010513;28;20487;-83
2020/12/24 04:39:49;;;;;;;0.63;0.60;;;8.10;99.90;;;;;;4996466;28;20030;-85
2020/12/24 04:42:16;;;;;;;0.80;0.70;;;8.10;99.90;;;;;;4982823;28;20111;-84
2020/12/24 04:44:42;;;;;;;2.60;0.90;;;8.00;99.90;;;;;;5014216;28;20022;-85
2020/12/24 04:47:08;;;;;;;0.80;0.60;;;8.10;99.90;;;;;;5014272;28;20089;-85
2020/12/24 04:49:34;;;;;;;1.27;0.77;;;8.10;99.90;;;;;;4995918;28;20026;-85
2020/12/24 04:52:01;;;;;;;1.27;1.00;;;8.10;99.90;;;;;;5004434;28;20339;-85
2020/12/24 04:54:28;;;;;;;0.67;0.67;;;8.10;99.90;;;;;;5013764;28;20026;-85
2020/12/24 04:56:53;;;;;;;1.53;0.70;;;8.00;99.90;;;;;;5013833;28;20425;-85
2020/12/24 04:59:20;;;;;;;0.60;0.60;;;8.00;99.90;;;;;;5013543;28;20104;-86
2020/12/24 05:01:55;;;;;;;0.77;0.70;;;7.90;99.90;;;;;;5013644;28;20028;-85
2020/12/24 05:04:20;;;;;;;0.73;0.70;;;8.00;99.90;;;;;;4983351;28;20192;-85
2020/12/24 05:06:46;;;;;;;0.60;0.60;;;7.80;99.90;;;;;;5012900;28;20487;-85
2020/12/24 05:09:11;;;;;;;1.07;0.70;;;7.80;99.90;;;;;;5012841;28;20355;-85
2020/12/24 05:11:37;;;;;;;1.03;0.70;;;7.80;99.90;;;;;;5013585;28;20108;-85
2020/12/24 05:14:19;;;;;;;1.93;0.70;;;7.70;99.90;;;;;;5013697;28;20033;-85
2020/12/24 05:16:58;;;;;;;1.20;0.70;;;7.70;99.90;;;;;;5013615;28;20014;-85
2020/12/24 05:19:24;;;;;;;0.70;0.70;;;7.60;99.90;;;;;;5013470;28;20079;-85
2020/12/24 05:21:50;;;;;;;0.70;0.70;;;7.60;99.90;;;;;;5015971;28;20037;-85
2020/12/24 05:24:25;;;;;;;0.60;0.60;;;7.50;99.90;;;;;;5019762;28;20100;-85
2020/12/24 05:26:53;;;;;;;1.30;0.80;;;7.60;99.90;;;;;;5010394;28;20057;-85
2020/12/24 05:29:18;;;;;;;3.07;0.80;;;7.60;99.90;;;;;;5012568;28;20140;-85
2020/12/24 05:31:44;;;;;;;1.37;0.83;;;7.50;99.90;;;;;;5007217;28;20097;-85
2020/12/24 05:34:19;;;;;;;1.70;0.80;;;7.40;99.90;;;;;;5006226;28;20120;-85
2020/12/24 05:36:45;;;;;;;;;;;7.30;99.90;;;;;;5007746;28;20762;-85
2020/12/24 05:39:11;;;;;;;3.30;0.73;;;7.30;99.90;;;;;;5010928;28;19991;-85
2020/12/24 05:41:38;;;;;;;0.83;0.60;;;7.20;99.90;;;;;;5006624;28;20058;-84
2020/12/24 05:44:12;;;;;;;0.93;0.70;;;7.20;99.90;;;;;;5016189;28;20021;-84
2020/12/24 05:46:40;;;;;;;2.40;0.80;;;7.30;99.90;;;;;;5009446;28;20017;-84
2020/12/24 05:49:17;;;;;;;1.47;0.70;;;7.20;99.90;;;;;;4994264;28;20475;-84
2020/12/24 05:51:47;;;;;;;1.10;0.80;;;7.10;99.90;;;;;;4978196;28;20088;-85
2020/12/24 05:54:15;;;;;;;1.33;0.70;;;7.10;99.90;;;;;;5007241;28;21005;-84
2020/12/24 05:56:41;;;;;;;2.00;0.80;;;7.00;99.90;;;;;;5017447;28;20022;-85
2020/12/24 05:59:12;;;;;;;1.90;0.70;;;6.90;99.90;;;;;;5011920;28;20066;-85
2020/12/24 06:01:39;;;;;;;1.80;1.07;;;6.90;99.90;;;;;;5007065;28;20033;-85
2020/12/24 06:04:07;;;;;;;1.50;0.80;;;6.90;99.90;;;;;;5008382;28;20084;-85
2020/12/24 06:06:44;;;;;;;0.70;0.70;;;6.80;99.90;;;;;;5012658;28;20026;-85
2020/12/24 06:09:15;;;;;;;2.33;0.73;;;6.70;99.90;;;;;;4994848;28;20323;-85
2020/12/24 06:11:51;;;;;;;2.40;1.00;;;6.70;99.90;;;;;;5012746;28;20022;-85
2020/12/24 06:14:31;;;;;;;0.60;0.60;;;6.70;99.90;;;;;;5012344;28;20042;-85
2020/12/24 06:17:07;;;;;;;0.70;0.70;;;6.60;99.90;;;;;;5012438;28;20483;-85
2020/12/24 06:19:38;;;;;;;0.67;0.67;;;6.60;99.90;;;;;;5013508;28;20196;-85
2020/12/24 06:22:05;;;;;;;1.90;0.70;;;6.50;99.90;;;;;;4998844;28;20422;-85
2020/12/24 06:24:32;;;;;;;1.03;0.70;;;6.50;99.90;;;;;;5016384;28;20505;-84
2020/12/24 06:27:03;;;;;;;1.90;0.70;;;6.40;99.90;;;;;;5016361;28;20450;-86
2020/12/24 06:29:32;;;;;;;1.57;0.80;;;6.40;99.90;;;;;;5016749;28;20026;-85
2020/12/24 06:31:59;;;;;;;1.80;0.90;;;6.40;99.90;;;;;;4998692;28;20084;-88
2020/12/24 06:34:26;;;;;;;2.10;1.00;;;6.40;99.90;;;;;;4998344;28;20061;-85
2020/12/24 06:36:52;;;;;;;1.20;0.80;;;6.40;99.90;;;;;;5016230;28;20030;-84
2020/12/24 06:39:43;;;;;;;0.67;0.67;;;6.40;99.90;;;;;;5015657;28;20110;-84
2020/12/24 06:42:36;;;;;;;1.37;0.80;;;6.30;99.90;;;;;;4998322;28;20813;-84
2020/12/24 06:45:24;;;;;;;1.90;1.13;;;6.30;99.90;;;;;;5020089;28;20406;-85
2020/12/24 06:48:14;;;;;;;2.13;0.80;;;6.30;99.90;;;;;;5002639;28;20037;-85
2020/12/24 06:50:41;;;;;;;2.97;0.90;;;6.30;99.90;;;;;;5015989;28;20026;-84
2020/12/24 06:53:22;;;;;;;1.90;0.90;;;6.30;99.90;;;;;;5015936;28;20025;-85
2020/12/24 06:56:19;;;;;;;2.13;0.87;;;6.20;99.90;;;;;;5015337;28;20026;-84
2020/12/24 06:58:49;;;;;;;1.37;0.90;;;6.10;99.90;;;;;;5014169;28;20057;-85
2020/12/24 07:01:30;;;;;;;3.07;0.90;;;6.20;99.90;;;;;;5015594;28;20109;-85
2020/12/24 07:04:04;;;;;;;2.13;0.80;;;6.20;99.90;;;;;;5015579;28;20050;-85
2020/12/24 07:06:41;;;;;;;3.23;0.90;;;6.20;99.90;;;;;;5015641;28;20018;-82
2020/12/24 07:09:11;;;;;;;1.60;1.00;;;6.20;99.90;;;;;;4998116;28;20185;-82
2020/12/24 07:11:42;;;;;;;2.10;1.10;;;6.20;99.90;;;;;;5015735;28;20052;-82
2020/12/24 07:14:34;;;;;;;1.10;0.90;;;6.20;99.90;;;;;;5006476;28;20509;-84
2020/12/24 07:17:19;;;;;;;3.87;1.10;;;6.20;99.90;;;;;;5014530;28;20128;-82
2020/12/24 07:19:48;;;;;;;2.42;0.90;;;6.10;99.90;;;;;;5009017;28;20040;-81
2020/12/24 07:22:18;;;;;;;1.53;1.00;;;6.10;99.90;;;;;;5015359;28;20026;-84
2020/12/24 07:25:03;;;;;;;0.80;0.80;;;6.10;99.90;;;;;;4997936;28;20033;-86
2020/12/24 07:27:28;;;;;;;1.10;0.80;;;6.00;99.90;;;;;;4999572;28;20509;-81
2020/12/24 07:29:54;;;;;;;1.80;1.03;;;6.00;99.90;;;;;;5009825;28;20010;-81
2020/12/24 07:32:20;;;;;;;1.87;1.10;;;6.00;99.90;;;;;;5008060;28;20034;-81
2020/12/24 07:34:46;;;;;;;2.20;0.80;;;6.10;99.90;;;;;;5015706;28;20098;-86
2020/12/24 07:37:12;;;;;;;3.37;0.90;;;6.10;99.90;;;;;;4997252;28;20033;-84
2020/12/24 07:39:37;;;;;;;3.40;1.23;;;6.10;99.90;;;;;;5015600;28;20072;-85
2020/12/24 07:42:03;;;;;;;1.33;0.90;;;6.10;99.90;;;;;;5015355;28;20026;-84
2020/12/24 07:44:28;;;;;;;1.97;1.00;;;6.00;99.90;;;;;;5015625;28;20097;-85
2020/12/24 07:47:01;;;;;;;4.50;1.93;;;6.10;99.90;;;;;;5012899;28;20022;-85
2020/12/24 07:49:27;;;;;;;1.03;0.90;;;6.10;99.90;;;;;;4989344;28;20030;-85
2020/12/24 07:51:57;;;;;;;3.40;1.10;;;6.00;99.90;;;;;;5005166;28;20022;-85
2020/12/24 07:54:29;;;;;;;3.43;1.60;;;6.00;99.90;;;;;;5011728;28;20036;-89
2020/12/24 07:56:55;;;;;;;2.20;1.17;;;6.00;99.90;;;;;;5009718;28;20034;-82
2020/12/24 07:59:22;;;;;;;1.80;1.00;;;6.00;99.90;;;;;;4994985;28;20053;-85
2020/12/24 08:01:48;;;;;;;4.30;1.10;;;6.00;99.90;;;;;;5005590;28;20137;-86
2020/12/24 08:04:16;;;;;;;2.93;1.20;;;6.00;99.90;;;;;;4987490;28;20104;-86
2020/12/24 08:06:42;;;;;;;1.67;0.93;;;6.10;99.90;;;;;;5011216;28;20058;-80
2020/12/24 08:09:17;;;;;;;1.47;1.20;;;6.10;99.90;;;;;;4994203;28;20056;-85
2020/12/24 08:11:57;;;;;;;1.90;1.13;;;6.10;99.90;;;;;;4995434;28;20438;-86
2020/12/24 08:14:24;;;;;;;2.53;0.90;;;6.10;99.90;;;;;;5013689;28;20375;-86
2020/12/24 08:16:51;;;;;;;1.87;0.90;;;6.10;99.90;;;;;;5013498;28;20076;-87
2020/12/24 08:19:43;;;;;;;2.30;1.03;;;6.10;99.90;;;;;;5013583;28;20105;-86
2020/12/24 08:22:26;;;;;;;1.80;1.00;;;6.10;99.90;;;;;;5001771;28;20073;-86
2020/12/24 08:24:54;;;;;;;1.00;0.90;;;6.10;99.90;;;;;;5014088;28;20022;-86
2020/12/24 08:27:20;;;;;;;1.70;0.90;;;6.10;99.90;;;;;;5009328;28;20038;-86
2020/12/24 08:29:47;;;;;;;0.80;0.80;;;6.10;99.90;;;;;;5013688;28;20048;-88
2020/12/24 08:32:14;;;;;;;3.30;1.20;;;6.10;99.90;;;;;;5014078;28;20109;-88
2020/12/24 08:34:40;;;;;;;5.40;1.57;;;6.10;99.90;;;;;;4996748;28;20045;-87
2020/12/24 08:37:05;;;;;;;2.90;1.10;;;6.10;99.90;;;;;;5013846;28;20467;-86
2020/12/24 08:39:31;;;;;;;5.83;1.77;;;6.10;99.90;;;;;;5013917;28;20037;-87
2020/12/24 08:41:58;;;;;;;2.87;1.30;;;6.10;99.90;;;;;;5012974;28;20489;-87
2020/12/24 08:44:24;;;;;;;2.67;1.17;;;6.20;99.90;;;;;;5013552;28;20018;-87
2020/12/24 08:47:09;;;;;;;3.83;1.40;;;6.10;99.90;;;;;;5013420;28;20471;-86
2020/12/24 08:50:03;;;;;;;3.30;1.53;;;6.20;99.90;;;;;;4986222;28;20030;-87
2020/12/24 08:52:35;;;;;;;1.70;1.00;;;6.20;99.90;;;;;;5013278;28;20730;-87
2020/12/24 08:55:08;;;;;;;5.57;1.17;;;6.30;99.90;;;;;;5013797;28;20037;-87
2020/12/24 08:57:34;;;;;;;3.40;1.40;;;6.30;99.90;;;;;;5007305;28;20040;-87
2020/12/24 09:00:06;;;;;;;4.20;1.00;;;6.40;99.90;;;;;;5006900;28;20029;-88
2020/12/24 09:02:34;;;;;;;2.07;1.07;;;6.40;99.90;;;;;;5013114;28;20030;-86
2020/12/24 09:05:01;;;;;;;1.60;0.93;;;6.50;99.90;;;;;;4995677;28;20062;-86
2020/12/24 09:07:30;;;;;;;1.17;0.90;;;6.40;99.90;;;;;;5013390;28;20470;-88
2020/12/24 09:10:06;;;;;;;3.20;1.33;;;6.50;99.90;;;;;;5011542;28;20022;-88
2020/12/24 09:12:32;;;;;;;1.67;0.90;;;6.40;99.90;;;;;;4985981;28;20031;-77
2020/12/24 09:15:09;;;;;;;2.40;1.10;;;6.40;99.90;;;;;;5009684;28;20026;-86
2020/12/24 09:17:36;;;;;;;2.67;1.20;;;6.40;99.90;;;;;;5012661;28;20026;-86
2020/12/24 09:20:11;;;;;;;2.73;1.07;;;6.30;99.90;;;;;;5012539;28;20026;-87
2020/12/24 09:22:47;;;;;;;2.57;1.00;;;6.30;99.90;;;;;;5012818;28;20176;-86
2020/12/24 09:25:25;;;;;;;2.90;1.10;;;6.30;99.90;;;;;;5012886;28;20033;-86
2020/12/24 09:27:52;;;;;;;1.43;1.30;;;6.30;99.90;;;;;;5009053;28;20765;-86
2020/12/24 09:30:18;;;;;;;1.10;0.90;;;6.40;99.90;;;;;;5012305;28;20467;-85
2020/12/24 09:32:51;;;;;;;1.90;0.90;;;6.50;99.90;;;;;;5013530;28;20037;-88
2020/12/24 09:35:16;;;;;;;3.20;1.43;;;6.60;99.90;;;;;;5030838;28;20037;-87
2020/12/24 09:37:42;;;;;;;1.37;1.10;;;6.60;99.90;;;;;;5027589;28;20024;-90
2020/12/24 09:40:07;;;;;;;1.93;0.97;;;6.70;99.90;;;;;;5016710;28;20052;-85
2020/12/24 09:42:33;;;;;;;1.67;0.93;;;6.70;99.90;;;;;;5012057;28;20036;-84
2020/12/24 09:44:58;;;;;;;1.37;0.80;;;6.90;99.90;;;;;;5006434;28;20030;-83
2020/12/24 09:47:24;;;;;;;1.70;0.90;;;6.80;99.90;;;;;;5011882;28;20022;-83
2020/12/24 09:49:49;;;;;;;1.87;1.10;;;6.80;99.90;;;;;;4978362;28;20097;-81
2020/12/24 09:52:15;;;;;;;1.10;0.90;;;6.90;99.90;;;;;;4992960;28;20034;-84
2020/12/24 09:54:40;;;;;;;1.33;0.90;;;7.10;99.90;;;;;;5010608;28;20128;-79
2020/12/24 09:57:06;;;;;;;1.83;1.00;;;7.20;99.90;;;;;;5012948;28;20034;-89
2020/12/24 09:59:31;;;;;;;1.43;0.90;;;7.20;99.90;;;;;;5003078;28;20030;-84
2020/12/24 10:01:57;;;;;;;1.30;0.83;;;7.20;99.90;;;;;;5004074;28;20032;-83
2020/12/24 10:04:22;;;;;;;1.10;0.80;;;7.30;99.90;;;;;;5003551;28;20173;-82
2020/12/24 10:06:48;;;;;;;3.17;1.10;;;7.40;99.90;;;;;;5005558;28;20056;-83
2020/12/24 10:09:14;;;;;;;1.60;1.00;;;7.50;99.90;;;;;;5002538;28;20088;-83
2020/12/24 10:11:43;;;;;;;2.00;0.80;;;7.50;99.90;;;;;;5010123;28;20034;-83
2020/12/24 10:14:09;;;;;;;1.60;1.00;;;7.70;99.90;;;;;;5008904;28;20076;-83
2020/12/24 10:16:35;;;;;;;1.43;1.00;;;7.90;99.90;;;;;;4988186;28;20034;-83
2020/12/24 10:19:00;;;;;;;1.30;0.80;;;8.00;99.90;;;;;;5010762;28;20022;-84
2020/12/24 10:21:27;;;;;;;0.87;0.80;;;8.10;99.90;;;;;;5012229;28;20037;-84
2020/12/24 10:23:53;;;;;;;2.00;0.90;;;8.30;99.90;;;;;;5010921;28;20014;-85
2020/12/24 10:26:20;;;;;;;4.57;1.00;;;8.50;99.90;;;;;;5011506;28;20391;-85
2020/12/24 10:28:46;;;;;;;1.60;1.00;;;8.60;99.90;;;;;;5010544;28;20045;-85
2020/12/24 10:31:12;;;;;;;2.07;1.07;;;8.50;99.90;;;;;;5010588;28;20478;-87
2020/12/24 10:33:37;;;;;;;2.33;0.90;;;8.50;99.90;;;;;;5008762;28;20033;-89
2020/12/24 10:36:03;;;;;;;1.63;0.90;;;8.40;99.90;;;;;;5006762;28;20026;-89
2020/12/24 10:38:29;;;;;;;1.47;0.93;;;8.30;99.90;;;;;;5012370;28;20105;-85
2020/12/24 10:40:55;;;;;;;2.03;0.80;;;8.30;99.90;;;;;;5011065;28;20076;-89
2020/12/24 10:43:21;;;;;;;3.17;1.00;;;8.20;99.90;;;;;;5012084;28;20030;-88
2020/12/24 10:45:47;;;;;;;1.53;1.00;;;8.10;99.90;;;;;;5011684;28;20050;-89
2020/12/24 10:48:12;;;;;;;2.50;1.00;;;8.30;99.90;;;;;;4992277;28;20018;-86
2020/12/24 10:50:38;;;;;;;3.63;1.20;;;8.40;99.90;;;;;;5005998;28;20159;-86
2020/12/24 10:53:04;;;;;;;2.40;1.00;;;8.50;99.90;;;;;;5004567;28;20109;-86
2020/12/24 10:55:29;;;;;;;1.53;1.10;;;8.70;99.90;;;;;;5011560;28;20033;-84
2020/12/24 10:57:55;;;;;;;3.00;0.90;;;8.80;99.90;;;;;;4989009;28;20081;-85
2020/12/24 11:00:20;;;;;;;2.40;1.33;;;8.80;99.90;;;;;;5001550;28;20038;-85
2020/12/24 11:02:46;;;;;;;2.70;1.10;;;9.00;99.90;;;;;;5010255;28;20029;-84
2020/12/24 11:05:11;;;;;;;2.77;1.07;;;9.00;99.90;;;;;;5008841;28;20402;-85
2020/12/24 11:07:37;;;;;;;0.90;0.80;;;9.00;99.90;;;;;;4995133;28;20583;-85
2020/12/24 11:10:04;;;;;;;2.20;0.90;;;9.10;99.90;;;;;;5012554;28;20024;-85
2020/12/24 11:12:29;;;;;;;1.77;1.00;;;9.20;99.90;;;;;;5014303;28;20036;-74
2020/12/24 11:14:55;;;;;;;1.90;1.10;;;9.20;99.90;;;;;;5014127;28;20030;-87
2020/12/24 11:17:21;;;;;;;2.43;0.90;;;9.10;99.90;;;;;;5014289;28;20061;-86
2020/12/24 11:19:47;;;;;;;3.73;1.03;;;9.00;99.90;;;;;;5014516;28;20029;-86
2020/12/24 11:22:12;;;;;;;3.70;0.90;;;8.90;99.90;;;;;;5001022;28;20093;-87
2020/12/24 11:24:39;;;;;;;1.73;0.97;;;8.90;99.90;;;;;;4997581;28;20117;-87
2020/12/24 11:27:05;;;;;;;1.83;1.13;;;8.90;99.90;;;;;;5014678;28;20014;-87
2020/12/24 11:29:31;;;;;;;3.07;1.07;;;9.00;99.90;;;;;;5014735;28;20029;-87
2020/12/24 11:31:58;;;;;;;4.40;1.20;;;9.00;99.90;;;;;;5010926;28;20049;-86
2020/12/24 11:34:23;;;;;;;2.63;1.03;;;9.10;99.90;;;;;;5014306;28;20348;-86
2020/12/24 11:36:49;;;;;;;3.27;1.03;;;9.00;99.90;;;;;;5013320;28;20056;-86
2020/12/24 11:39:14;;;;;;;3.37;1.00;;;9.00;99.90;;;;;;5012621;28;20041;-86
2020/12/24 11:41:40;;;;;;;1.70;0.93;;;9.00;99.90;;;;;;4985769;28;20030;-81
2020/12/24 11:44:06;;;;;;;3.13;1.00;;;9.10;99.90;;;;;;5008893;28;20484;-81
2020/12/24 11:46:31;;;;;;;2.70;1.10;;;9.20;99.90;;;;;;5005660;28;20529;-81
2020/12/24 11:48:57;;;;;;;1.17;0.80;;;9.30;99.90;;;;;;5001601;28;20034;-82
2020/12/24 11:51:23;;;;;;;3.53;0.90;;;9.50;99.90;;;;;;4996566;28;20022;-78
2020/12/24 11:53:49;;;;;;;2.57;1.00;;;9.60;99.90;;;;;;5016717;28;20033;-78
2020/12/24 11:56:16;;;;;;;3.90;1.07;;;9.80;99.90;;;;;;5014880;28;20056;-78
2020/12/24 11:58:43;;;;;;;1.27;0.70;;;9.90;99.90;;;;;;5012152;28;20018;-77
2020/12/24 12:01:17;;;;;;;2.13;0.97;;;9.90;99.90;;;;;;4994261;28;20030;-86
2020/12/24 12:03:42;;;;;;;3.63;0.80;;;9.90;99.90;;;;;;5014332;28;20044;-77
2020/12/24 12:06:08;;;;;;;2.40;0.97;;;9.90;99.90;;;;;;4999721;28;20543;-77
2020/12/24 12:08:34;;;;;;;2.50;1.00;;;9.80;99.90;;;;;;5010771;28;20033;-78
2020/12/24 12:11:04;;;;;;;4.77;0.90;;;9.80;99.90;;;;;;5008907;28;20093;-77
2020/12/24 12:13:30;;;;;;;3.23;1.00;;;9.60;99.90;;;;;;5014479;28;20056;-77
2020/12/24 12:15:56;;;;;;;1.80;0.87;;;9.70;99.90;;;;;;5014815;28;20374;-77
2020/12/24 12:18:22;;;;;;;3.47;1.00;;;9.50;99.90;;;;;;5000234;28;20037;-77
2020/12/24 12:20:47;;;;;;;1.90;0.93;;;9.40;99.90;;;;;;5014539;28;20470;-76
2020/12/24 12:23:13;;;;;;;3.17;1.00;;;9.40;99.90;;;;;;4996768;28;20037;-77
2020/12/24 12:25:38;;;;;;;1.83;0.90;;;9.30;99.90;;;;;;5014518;28;20113;-77
2020/12/24 12:28:04;;;;;;;2.73;0.90;;;9.30;99.90;;;;;;5014421;28;20076;-77
2020/12/24 12:30:30;;;;;;;1.83;1.00;;;9.20;99.90;;;;;;4978889;28;20019;-77
2020/12/24 12:32:55;;;;;;;3.30;1.20;;;9.20;99.90;;;;;;5004725;28;20022;-70
2020/12/24 12:35:21;;;;;;;2.37;1.00;;;9.10;99.90;;;;;;5011246;28;20030;-77
2020/12/24 12:37:47;;;;;;;1.47;1.10;;;9.10;99.90;;;;;;5014231;28;20459;-77
2020/12/24 12:40:12;;;;;;;3.67;1.20;;;9.00;99.90;;;;;;5013851;28;20659;-78
2020/12/24 12:42:38;;;;;;;1.27;0.90;;;8.90;99.90;;;;;;5013324;28;20018;-77
2020/12/24 12:45:05;;;;;;;2.70;0.90;;;8.80;99.90;;;;;;5013577;28;20034;-77
2020/12/24 12:47:36;;;;;;;2.20;0.80;;;8.80;99.90;;;;;;4998947;28;20117;-79
2020/12/24 12:50:02;;;;;;;2.50;1.10;;;8.70;99.90;;;;;;5013938;28;20025;-79
2020/12/24 12:52:30;;;;;;;3.30;1.37;;;8.70;99.90;;;;;;5012457;28;20034;-78
2020/12/24 12:54:55;;;;;;;3.07;0.97;;;8.50;99.90;;;;;;5022636;28;20026;-78
2020/12/24 12:57:21;;;;;;;2.30;0.90;;;8.70;99.90;;;;;;5013110;28;20490;-78
2020/12/24 12:59:46;;;;;;;4.03;1.23;;;8.70;99.90;;;;;;5002956;28;20030;-79